createdAt,value
2015-11-23T00:00:00.736Z,1
2015-11-23T00:00:59.940Z,0.9
2015-11-23T00:01:59.193Z,0.9
2015-11-23T00:02:58.462Z,0.9
2015-11-23T00:05:00.031Z,0.9
2015-11-23T00:05:56.249Z,0.9
2015-11-23T00:06:55.517Z,0.9
2015-11-23T00:07:54.817Z,0.9
2015-11-23T00:08:56.617Z,0.9
2015-11-23T00:09:55.884Z,0.9
2015-11-23T00:10:55.090Z,0.9
2015-11-23T00:12:53.612Z,0.8
2015-11-23T00:13:52.990Z,0.9
2015-11-23T00:14:52.148Z,0.8
2015-11-23T00:15:51.401Z,0.8
2015-11-23T00:16:50.653Z,0.8
2015-11-23T00:17:49.970Z,0.8
2015-11-23T00:18:51.737Z,0.8
2015-11-23T00:19:50.756Z,0.7
2015-11-23T00:20:49.743Z,0.7
2015-11-23T00:23:46.736Z,0.7
2015-11-23T00:24:45.519Z,0.6
2015-11-23T00:31:39.805Z,0.5
2015-11-23T00:32:38.557Z,0.5
2015-11-23T00:35:34.799Z,0.5
2015-11-23T00:36:33.553Z,0.5
2015-11-23T00:37:32.352Z,0.4
2015-11-23T00:38:34.136Z,0.4
2015-11-23T00:39:32.874Z,0.4
2015-11-23T00:40:31.610Z,0.4
2015-11-23T00:41:30.360Z,0.4
2015-11-23T00:42:29.128Z,0.4
2015-11-23T00:43:27.866Z,0.3
2015-11-23T00:44:26.634Z,0.3
2015-11-23T00:45:25.340Z,0.3
2015-11-23T00:46:24.093Z,0.3
2015-11-23T00:47:22.908Z,0.3
2015-11-23T00:48:24.676Z,0.2
2015-11-23T00:49:23.413Z,0.2
2015-11-23T00:50:22.165Z,0.2
2015-11-23T00:51:20.918Z,0.2
2015-11-23T00:52:19.656Z,0.2
2015-11-23T00:53:18.409Z,0.2
2015-11-23T00:54:17.145Z,0.1
2015-11-23T00:55:15.914Z,0.1
2015-11-23T00:56:14.651Z,0.1
2015-11-23T00:57:13.450Z,0.1
2015-11-23T00:58:15.219Z,0.1
2015-11-23T00:59:13.971Z,0.1
2015-11-23T01:00:12.724Z,0.1
2015-11-23T01:01:11.493Z,0.1
2015-11-23T01:02:10.214Z,0.1
2015-11-23T01:03:08.967Z,0.1
2015-11-23T01:04:07.735Z,0.1
2015-11-23T01:05:06.456Z,0.1
2015-11-23T01:06:05.241Z,0.1
2015-11-23T01:07:04.009Z,0.1
2015-11-23T01:08:05.793Z,0
2015-11-23T01:09:04.545Z,0
2015-11-23T01:10:03.299Z,0
2015-11-23T01:11:02.036Z,0
2015-11-23T01:12:00.788Z,0
2015-11-23T01:12:59.538Z,0
2015-11-23T01:13:58.588Z,0
2015-11-23T01:14:57.544Z,0
2015-11-23T01:16:55.612Z,0
2015-11-23T01:17:57.396Z,0.1
2015-11-23T01:18:56.383Z,0.1
2015-11-23T01:19:55.494Z,0.1
2015-11-23T01:20:54.622Z,0.1
2015-11-23T01:21:53.641Z,0.1
2015-11-23T01:22:52.925Z,0.1
2015-11-23T01:23:52.177Z,0.1
2015-11-23T01:24:51.430Z,0.1
2015-11-23T01:25:50.699Z,0.1
2015-11-23T01:26:50.014Z,0.1
2015-11-23T01:27:51.798Z,0.1
2015-11-23T01:28:51.050Z,0.1
2015-11-23T01:29:50.303Z,0.1
2015-11-23T01:30:49.572Z,0.1
2015-11-23T01:31:48.824Z,0.1
2015-11-23T01:32:51.125Z,0.1
2015-11-23T01:33:47.361Z,0.1
2015-11-23T01:34:46.630Z,0.1
2015-11-23T01:35:46.133Z,0.1
2015-11-23T01:36:45.463Z,0.1
2015-11-23T01:37:47.247Z,0.1
2015-11-23T01:38:46.750Z,0.1
2015-11-23T01:39:46.268Z,0.1
2015-11-23T01:40:45.833Z,0
2015-11-23T01:42:45.104Z,0
2015-11-23T01:43:44.904Z,0
2015-11-23T01:44:44.672Z,0
2015-11-23T01:45:44.426Z,0
2015-11-23T01:46:44.256Z,0
2015-11-23T01:47:46.024Z,0
2015-11-23T01:48:45.793Z,0
2015-11-23T01:49:45.593Z,0
2015-11-23T01:50:45.345Z,0.1
2015-11-23T01:51:45.113Z,0.1
2015-11-23T01:52:44.898Z,0.1
2015-11-23T01:53:44.666Z,0.1
2015-11-23T01:54:44.434Z,0.1
2015-11-23T01:55:44.248Z,0.1
2015-11-23T01:56:44.048Z,0.1
2015-11-23T01:57:45.818Z,0.1
2015-11-23T01:58:45.601Z,0.1
2015-11-23T01:59:45.384Z,0.1
2015-11-23T02:00:45.137Z,0.1
2015-11-23T02:01:44.906Z,0.1
2015-11-23T02:02:44.689Z,0.1
2015-11-23T02:03:44.725Z,0.1
2015-11-23T02:04:44.759Z,0.2
2015-11-23T02:05:44.823Z,0.2
2015-11-23T02:06:44.873Z,0.2
2015-11-23T02:07:46.641Z,0.2
2015-11-23T02:08:46.675Z,0.2
2015-11-23T02:09:46.694Z,0.2
2015-11-23T02:10:46.743Z,0.3
2015-11-23T02:11:47.059Z,0.3
2015-11-23T02:12:47.311Z,0.3
2015-11-23T02:13:47.610Z,0.3
2015-11-23T02:14:47.880Z,0.3
2015-11-23T02:15:48.163Z,0.3
2015-11-23T02:16:48.510Z,0.4
2015-11-23T02:17:50.294Z,0.4
2015-11-23T02:18:50.561Z,0.4
2015-11-23T02:19:50.861Z,0.4
2015-11-23T02:20:51.161Z,0.4
2015-11-23T02:21:51.461Z,0.4
2015-11-23T02:22:51.713Z,0.4
2015-11-23T02:23:51.997Z,0.5
2015-11-23T02:24:52.282Z,0.5
2015-11-23T02:25:52.581Z,0.5
2015-11-23T02:26:52.927Z,0.5
2015-11-23T02:27:54.680Z,0.5
2015-11-23T02:28:54.980Z,0.5
2015-11-23T02:29:55.264Z,0.5
2015-11-23T02:30:55.579Z,0.5
2015-11-23T02:31:55.863Z,0.5
2015-11-23T02:32:56.147Z,0.5
2015-11-23T02:33:56.431Z,0.5
2015-11-23T02:34:56.699Z,0.5
2015-11-23T02:35:56.982Z,0.5
2015-11-23T02:36:57.329Z,0.5
2015-11-23T02:37:59.098Z,0.5
2015-11-23T02:38:59.382Z,0.5
2015-11-23T02:39:59.666Z,0.5
2015-11-23T02:42:00.234Z,0.5
2015-11-23T02:43:00.517Z,0.5
2015-11-23T02:44:00.848Z,0.5
2015-11-23T02:45:01.116Z,0.6
2015-11-23T02:46:01.354Z,0.5
2015-11-23T02:47:01.497Z,0.5
2015-11-23T02:48:03.234Z,0.6
2015-11-23T02:49:03.268Z,0.6
2015-11-23T02:50:03.318Z,0.6
2015-11-23T02:51:03.336Z,0.6
2015-11-23T02:52:03.964Z,0.6
2015-11-23T02:53:03.386Z,0.6
2015-11-23T02:55:04.594Z,0.7
2015-11-23T02:56:03.238Z,0.6
2015-11-23T02:57:03.319Z,0.7
2015-11-23T02:58:05.071Z,0.7
2015-11-23T02:59:04.840Z,0.7
2015-11-23T03:00:04.624Z,0.7
2015-11-23T03:01:04.377Z,0.7
2015-11-23T03:02:04.161Z,0.7
2015-11-23T03:03:03.928Z,0.7
2015-11-23T03:04:03.697Z,0.7
2015-11-23T03:05:03.480Z,0.7
2015-11-23T03:06:03.249Z,0.7
2015-11-23T03:07:03.080Z,0.7
2015-11-23T03:08:04.833Z,0.7
2015-11-23T03:09:04.617Z,0.7
2015-11-23T03:10:04.385Z,0.7
2015-11-23T03:11:04.154Z,0.7
2015-11-23T03:12:03.938Z,0.8
2015-11-23T03:13:03.705Z,0.7
2015-11-23T03:14:03.474Z,0.7
2015-11-23T03:15:03.258Z,0.7
2015-11-23T03:16:03.058Z,0.8
2015-11-23T03:17:02.857Z,0.7
2015-11-23T03:18:04.626Z,0.7
2015-11-23T03:19:04.441Z,0.8
2015-11-23T03:20:04.179Z,0.8
2015-11-23T03:21:05.368Z,0.8
2015-11-23T03:22:05.137Z,0.8
2015-11-23T03:23:03.499Z,0.8
2015-11-23T03:24:03.268Z,0.8
2015-11-23T03:25:03.035Z,0.8
2015-11-23T03:26:02.803Z,0.8
2015-11-23T03:27:02.384Z,0.8
2015-11-23T03:28:04.153Z,0.8
2015-11-23T03:29:03.937Z,0.8
2015-11-23T03:30:03.737Z,0.8
2015-11-23T03:31:03.224Z,0.8
2015-11-23T03:32:03.007Z,0.8
2015-11-23T03:33:02.542Z,0.8
2015-11-23T03:34:02.059Z,0.9
2015-11-23T03:35:01.578Z,0.9
2015-11-23T03:36:01.112Z,0.9
2015-11-23T03:37:00.678Z,0.9
2015-11-23T03:38:02.414Z,0.9
2015-11-23T03:40:02.904Z,0.9
2015-11-23T03:42:00.520Z,0.9
2015-11-23T03:44:02.556Z,0.9
2015-11-23T03:44:58.809Z,0.9
2015-11-23T03:45:58.061Z,0.9
2015-11-23T03:46:57.377Z,0.9
2015-11-23T03:47:59.176Z,0.9
2015-11-23T03:48:58.414Z,0.9
2015-11-23T03:49:57.947Z,0.9
2015-11-23T03:51:59.484Z,0.9
2015-11-23T03:52:55.719Z,0.9
2015-11-23T03:54:57.239Z,0.9
2015-11-23T03:55:56.507Z,0.9
2015-11-23T03:56:52.807Z,0.9
2015-11-23T03:57:54.591Z,0.9
2015-11-23T03:58:53.861Z,0.9
2015-11-23T03:59:56.161Z,0.9
2015-11-23T04:00:52.398Z,0.9
2015-11-23T04:01:51.635Z,0.9
2015-11-23T04:02:50.887Z,0.9
2015-11-23T04:03:50.155Z,0.9
2015-11-23T04:04:49.424Z,0.9
2015-11-23T04:05:48.677Z,0.9
2015-11-23T04:06:48.023Z,0.9
2015-11-23T04:07:49.776Z,0.9
2015-11-23T04:08:49.044Z,0.9
2015-11-23T04:09:48.297Z,0.9
2015-11-23T04:10:47.581Z,0.9
2015-11-23T04:11:46.818Z,0.9
2015-11-23T04:12:46.086Z,0.9
2015-11-23T04:13:45.355Z,0.9
2015-11-23T04:14:44.608Z,0.9
2015-11-23T04:15:43.875Z,0.9
2015-11-23T04:16:43.191Z,0.9
2015-11-23T04:17:48.006Z,0.9
2015-11-23T04:18:44.243Z,0.9
2015-11-23T04:19:43.480Z,0.9
2015-11-23T04:20:42.749Z,0.9
2015-11-23T04:21:42.002Z,0.9
2015-11-23T04:22:41.302Z,0.9
2015-11-23T04:23:40.522Z,0.9
2015-11-23T04:26:38.375Z,1
2015-11-23T04:27:40.174Z,1
2015-11-23T04:28:39.411Z,1
2015-11-23T04:29:41.696Z,1
2015-11-23T04:30:37.933Z,1
2015-11-23T04:31:37.201Z,1
2015-11-23T04:32:36.454Z,1
2015-11-23T04:33:38.738Z,1
2015-11-23T04:34:34.974Z,1
2015-11-23T04:35:34.274Z,1.1
2015-11-23T04:36:33.590Z,1
2015-11-23T04:37:35.327Z,1
2015-11-23T04:38:34.579Z,1
2015-11-23T04:39:33.845Z,1.1
2015-11-23T04:40:33.112Z,1
2015-11-23T04:41:32.365Z,1
2015-11-23T04:42:34.650Z,1
2015-11-23T04:43:30.887Z,1
2015-11-23T04:44:30.155Z,1
2015-11-23T04:45:29.408Z,1
2015-11-23T04:46:28.739Z,1
2015-11-23T04:47:30.507Z,1
2015-11-23T04:48:29.760Z,1
2015-11-23T04:49:29.029Z,1
2015-11-23T04:50:28.312Z,1
2015-11-23T04:51:27.549Z,1
2015-11-23T04:52:26.833Z,1.1
2015-11-23T04:53:26.101Z,1.1
2015-11-23T04:54:25.089Z,1
2015-11-23T04:55:24.076Z,1.1
2015-11-23T04:56:23.142Z,1.1
2015-11-23T04:57:24.909Z,1.1
2015-11-23T04:58:24.178Z,1.1
2015-11-23T04:59:23.430Z,1.1
2015-11-23T05:00:22.450Z,1.1
2015-11-23T05:01:21.702Z,1.1
2015-11-23T05:02:20.969Z,1.1
2015-11-23T05:03:19.989Z,1.1
2015-11-23T05:04:21.991Z,1.1
2015-11-23T05:05:18.009Z,1.1
2015-11-23T05:06:17.044Z,1.1
2015-11-23T05:08:17.861Z,1.1
2015-11-23T05:09:16.614Z,1.1
2015-11-23T05:10:15.585Z,1.1
2015-11-23T05:11:14.619Z,1.1
2015-11-23T05:12:13.591Z,1.1
2015-11-23T05:13:12.593Z,1.1
2015-11-23T05:14:11.346Z,1.1
2015-11-23T05:15:10.099Z,1.1
2015-11-23T05:16:08.913Z,1.1
2015-11-23T05:17:10.698Z,1.1
2015-11-23T05:18:09.419Z,1
2015-11-23T05:19:08.172Z,1.1
2015-11-23T05:20:09.940Z,1.1
2015-11-23T05:21:05.690Z,1
2015-11-23T05:22:04.412Z,1
2015-11-23T05:23:03.196Z,1
2015-11-23T05:24:01.917Z,1
2015-11-23T05:25:00.671Z,1
2015-11-23T05:25:59.486Z,1
2015-11-23T05:27:01.270Z,1
2015-11-23T05:27:59.991Z,1
2015-11-23T05:28:58.744Z,1
2015-11-23T05:29:57.512Z,1
2015-11-23T05:30:56.234Z,1
2015-11-23T05:31:54.987Z,1
2015-11-23T05:32:53.725Z,0.9
2015-11-23T05:33:52.447Z,1
2015-11-23T05:34:51.201Z,1
2015-11-23T05:35:49.987Z,0.9
2015-11-23T05:36:51.741Z,1
2015-11-23T05:37:50.488Z,1
2015-11-23T05:38:49.221Z,0.9
2015-11-23T05:39:47.967Z,0.9
2015-11-23T05:40:46.746Z,1
2015-11-23T05:41:48.509Z,1
2015-11-23T05:42:44.214Z,1
2015-11-23T05:43:42.952Z,1
2015-11-23T05:44:41.734Z,0.9
2015-11-23T05:45:40.501Z,1
2015-11-23T05:46:42.267Z,0.9
2015-11-23T05:47:41.019Z,1
2015-11-23T05:48:42.804Z,1
2015-11-23T05:49:38.524Z,1
2015-11-23T05:50:37.292Z,1
2015-11-23T05:51:36.014Z,1
2015-11-23T05:52:34.764Z,1
2015-11-23T05:53:33.516Z,1
2015-11-23T05:54:32.268Z,1
2015-11-23T05:55:31.067Z,0.9
2015-11-23T05:56:32.835Z,0.9
2015-11-23T05:57:31.588Z,0.9
2015-11-23T05:59:32.140Z,0.9
2015-11-23T06:00:27.831Z,0.9
2015-11-23T06:01:26.583Z,0.9
2015-11-23T06:02:25.367Z,0.9
2015-11-23T06:03:24.089Z,0.9
2015-11-23T06:04:22.842Z,0.9
2015-11-23T06:05:21.672Z,0.9
2015-11-23T06:06:23.409Z,0.9
2015-11-23T06:07:22.162Z,0.9
2015-11-23T06:08:20.945Z,0.9
2015-11-23T06:09:19.668Z,0.9
2015-11-23T06:10:18.404Z,0.9
2015-11-23T06:11:17.173Z,0.9
2015-11-23T06:12:15.941Z,0.9
2015-11-23T06:15:12.247Z,0.9
2015-11-23T06:16:13.983Z,0.9
2015-11-23T06:17:12.753Z,0.9
2015-11-23T06:18:11.489Z,0.9
2015-11-23T06:19:10.257Z,0.9
2015-11-23T06:20:09.010Z,0.9
2015-11-23T06:22:09.547Z,0.9
2015-11-23T06:23:05.237Z,0.8
2015-11-23T06:24:03.987Z,0.9
2015-11-23T06:25:02.787Z,0.9
2015-11-23T06:26:04.570Z,0.9
2015-11-23T06:27:03.307Z,0.9
2015-11-23T06:28:02.061Z,0.9
2015-11-23T06:29:00.844Z,0.9
2015-11-23T06:29:59.566Z,0.8
2015-11-23T06:30:58.319Z,0.8
2015-11-23T06:31:57.055Z,0.8
2015-11-23T06:32:55.808Z,0.8
2015-11-23T06:33:54.592Z,0.9
2015-11-23T06:34:53.361Z,0.8
2015-11-23T06:35:55.144Z,0.8
2015-11-23T06:36:53.882Z,0.8
2015-11-23T06:37:52.650Z,0.8
2015-11-23T06:38:51.388Z,0.8
2015-11-23T06:39:50.140Z,0.8
2015-11-23T06:40:49.174Z,0.8
2015-11-23T06:41:47.927Z,0.8
2015-11-23T06:42:46.929Z,0.8
2015-11-23T06:43:45.901Z,0.9
2015-11-23T06:44:44.982Z,0.8
2015-11-23T06:45:49.765Z,0.8
2015-11-23T06:46:45.737Z,0.9
2015-11-23T06:48:43.742Z,0.8
2015-11-23T06:49:42.745Z,0.9
2015-11-23T06:50:41.748Z,0.9
2015-11-23T06:51:41.016Z,0.9
2015-11-23T06:52:40.019Z,0.9
2015-11-23T06:53:39.288Z,0.9
2015-11-23T06:54:38.603Z,0.9
2015-11-23T06:55:40.371Z,0.9
2015-11-23T06:56:39.623Z,0.9
2015-11-23T06:57:38.907Z,0.9
2015-11-23T06:58:38.145Z,0.9
2015-11-23T07:01:35.934Z,0.9
2015-11-23T07:02:35.215Z,0.9
2015-11-23T07:03:34.484Z,0.9
2015-11-23T07:04:33.768Z,0.9
2015-11-23T07:05:35.551Z,0.9
2015-11-23T07:06:34.836Z,0.9
2015-11-23T07:07:34.056Z,0.9
2015-11-23T07:08:33.326Z,0.9
2015-11-23T07:11:31.100Z,0.9
2015-11-23T07:13:32.667Z,0.9
2015-11-23T07:14:28.936Z,0.9
2015-11-23T07:15:30.736Z,0.9
2015-11-23T07:16:29.973Z,0.9
2015-11-23T07:17:29.225Z,0.9
2015-11-23T07:18:28.494Z,0.9
2015-11-23T07:19:30.762Z,0.9
2015-11-23T07:20:27.014Z,0.9
2015-11-23T07:21:26.283Z,1
2015-11-23T07:22:25.552Z,1
2015-11-23T07:23:24.538Z,1
2015-11-23T07:24:23.853Z,1
2015-11-23T07:25:25.622Z,1
2015-11-23T07:26:24.891Z,1
2015-11-23T07:27:24.143Z,1
2015-11-23T07:28:23.428Z,1
2015-11-23T07:29:22.663Z,1
2015-11-23T07:32:20.438Z,1.1
2015-11-23T07:33:19.691Z,1.1
2015-11-23T07:34:22.052Z,1.1
2015-11-23T07:35:20.821Z,1.1
2015-11-23T07:36:20.074Z,1.1
2015-11-23T07:38:21.595Z,1.2
2015-11-23T07:40:17.101Z,1.2
2015-11-23T07:42:18.637Z,1.2
2015-11-23T07:43:14.890Z,1.2
2015-11-23T07:44:14.202Z,1.3
2015-11-23T07:45:15.957Z,1.3
2015-11-23T07:46:14.942Z,1.3
2015-11-23T07:47:13.960Z,1.3
2015-11-23T07:48:12.978Z,1.3
2015-11-23T07:49:11.950Z,1.3
2015-11-23T07:50:10.953Z,1.3
2015-11-23T07:51:09.956Z,1.3
2015-11-23T07:52:11.740Z,1.3
2015-11-23T07:53:07.461Z,1.4
2015-11-23T07:54:06.245Z,1.5
2015-11-23T07:55:08.044Z,1.4
2015-11-23T07:56:06.766Z,1.5
2015-11-23T07:57:05.520Z,1.5
2015-11-23T07:58:04.272Z,1.5
2015-11-23T07:59:06.040Z,1.5
2015-11-23T08:00:01.747Z,1.5
2015-11-23T08:02:02.268Z,1.6
2015-11-23T08:02:57.989Z,1.6
2015-11-23T08:03:56.805Z,1.7
2015-11-23T08:05:57.295Z,1.7
2015-11-23T08:06:55.798Z,1.7
2015-11-23T08:07:54.284Z,1.7
2015-11-23T08:08:52.770Z,1.7
2015-11-23T08:09:51.258Z,1.7
2015-11-23T08:10:53.589Z,1.7
2015-11-23T08:11:55.920Z,1.7
2015-11-23T08:12:58.267Z,1.7
2015-11-23T08:14:00.660Z,1.7
2015-11-23T08:15:02.428Z,1.8
2015-11-23T08:16:04.759Z,1.8
2015-11-23T08:17:07.090Z,1.8
2015-11-23T08:18:12.453Z,1.8
2015-11-23T08:19:11.767Z,1.8
2015-11-23T08:20:13.848Z,1.8
2015-11-23T08:21:15.944Z,1.8
2015-11-23T08:24:21.468Z,1.9
2015-11-23T08:25:23.283Z,1.8
2015-11-23T08:26:25.052Z,1.9
2015-11-23T08:28:28.698Z,1.8
2015-11-23T08:29:30.528Z,1.9
2015-11-23T08:30:32.361Z,1.9
2015-11-23T08:31:34.175Z,1.9
2015-11-23T08:32:35.991Z,1.9
2015-11-23T08:33:37.821Z,2
2015-11-23T08:34:39.699Z,2
2015-11-23T08:35:41.467Z,2
2015-11-23T08:36:43.283Z,2
2015-11-23T08:37:44.863Z,2.1
2015-11-23T08:38:46.428Z,2.1
2015-11-23T08:39:47.994Z,2.1
2015-11-23T08:40:49.559Z,2.1
2015-11-23T08:42:52.689Z,2.1
2015-11-23T08:43:53.989Z,2.1
2015-11-23T08:44:55.352Z,2.2
2015-11-23T08:45:57.120Z,2.2
2015-11-23T08:47:01.435Z,2.2
2015-11-23T08:47:59.735Z,2.2
2015-11-23T08:49:01.050Z,2.2
2015-11-23T08:50:02.349Z,2.2
2015-11-23T08:51:03.649Z,2.2
2015-11-23T08:52:05.011Z,2.2
2015-11-23T08:53:06.264Z,2.3
2015-11-23T08:54:07.579Z,2.3
2015-11-23T08:55:08.941Z,2.3
2015-11-23T08:56:10.710Z,2.3
2015-11-23T08:57:12.009Z,2.3
2015-11-23T08:58:13.342Z,2.4
2015-11-23T09:00:15.676Z,2.4
2015-11-23T09:01:16.741Z,2.4
2015-11-23T09:02:17.790Z,2.4
2015-11-23T09:03:18.825Z,2.5
2015-11-23T09:04:19.624Z,2.4
2015-11-23T09:05:20.470Z,2.5
2015-11-23T09:06:22.239Z,2.5
2015-11-23T09:07:23.039Z,2.5
2015-11-23T09:08:23.839Z,2.5
2015-11-23T09:09:24.623Z,2.5
2015-11-23T09:10:25.422Z,2.5
2015-11-23T09:11:26.206Z,2.5
2015-11-23T09:12:27.006Z,2.5
2015-11-23T09:15:29.186Z,2.4
2015-11-23T09:16:30.954Z,2.5
2015-11-23T09:17:31.739Z,2.4
2015-11-23T09:18:32.022Z,2.4
2015-11-23T09:19:32.572Z,2.4
2015-11-23T09:20:33.106Z,2.4
2015-11-23T09:21:33.656Z,2.4
2015-11-23T09:22:34.173Z,2.4
2015-11-23T09:23:34.723Z,2.4
2015-11-23T09:24:35.507Z,2.4
2015-11-23T09:25:36.103Z,2.4
2015-11-23T09:26:37.872Z,2.4
2015-11-23T09:27:38.156Z,2.4
2015-11-23T09:28:38.424Z,2.4
2015-11-23T09:29:38.708Z,2.4
2015-11-23T09:30:38.991Z,2.4
2015-11-23T09:31:39.276Z,2.4
2015-11-23T09:32:39.560Z,2.4
2015-11-23T09:33:39.844Z,2.4
2015-11-23T09:34:40.377Z,2.4
2015-11-23T09:35:40.974Z,2.4
2015-11-23T09:36:42.727Z,2.4
2015-11-23T09:37:43.011Z,2.4
2015-11-23T09:38:43.295Z,2.4
2015-11-23T09:39:46.580Z,2.4
2015-11-23T09:40:43.846Z,2.4
2015-11-23T09:41:44.131Z,2.4
2015-11-23T09:42:44.665Z,2.4
2015-11-23T09:43:45.230Z,2.4
2015-11-23T09:44:45.749Z,2.4
2015-11-23T09:45:46.080Z,2.3
2015-11-23T09:46:47.848Z,2.3
2015-11-23T09:47:48.132Z,2.3
2015-11-23T09:48:48.666Z,2.4
2015-11-23T09:49:49.200Z,2.4
2015-11-23T09:50:49.749Z,2.4
2015-11-23T09:51:50.284Z,2.5
2015-11-23T09:52:50.787Z,2.5
2015-11-23T09:53:51.336Z,2.5
2015-11-23T09:54:51.870Z,2.5
2015-11-23T09:55:52.451Z,2.5
2015-11-23T09:56:54.219Z,2.5
2015-11-23T09:57:54.753Z,2.5
2015-11-23T09:58:55.037Z,2.5
2015-11-23T09:59:55.305Z,2.5
2015-11-23T10:00:55.589Z,2.5
2015-11-23T10:01:55.858Z,2.5
2015-11-23T10:02:55.641Z,2.5
2015-11-23T10:03:55.644Z,2.5
2015-11-23T10:04:55.944Z,2.5
2015-11-23T10:05:56.258Z,2.5
2015-11-23T10:06:58.011Z,2.5
2015-11-23T10:07:58.295Z,2.5
2015-11-23T10:09:58.848Z,2.5
2015-11-23T10:10:59.133Z,2.5
2015-11-23T10:11:59.400Z,2.5
2015-11-23T10:12:59.684Z,2.6
2015-11-23T10:13:59.952Z,2.5
2015-11-23T10:15:00.236Z,2.5
2015-11-23T10:16:00.566Z,2.5
2015-11-23T10:18:02.338Z,2.5
2015-11-23T10:19:02.622Z,2.5
2015-11-23T10:20:02.891Z,2.5
2015-11-23T10:21:03.190Z,2.5
2015-11-23T10:22:03.457Z,2.5
2015-11-23T10:24:03.995Z,2.5
2015-11-23T10:25:04.279Z,2.5
2015-11-23T10:26:04.610Z,2.5
2015-11-23T10:27:06.393Z,2.5
2015-11-23T10:28:06.896Z,2.5
2015-11-23T10:29:07.696Z,2.4
2015-11-23T10:30:08.479Z,2.4
2015-11-23T10:31:09.264Z,2.3
2015-11-23T10:32:10.064Z,2.4
2015-11-23T10:33:10.847Z,2.3
2015-11-23T10:34:11.898Z,2.3
2015-11-23T10:35:12.947Z,2.3
2015-11-23T10:36:14.309Z,2.3
2015-11-23T10:37:16.062Z,2.3
2015-11-23T10:38:17.376Z,2.2
2015-11-23T10:39:18.676Z,2.2
2015-11-23T10:40:19.976Z,2.1
2015-11-23T10:41:21.275Z,2.2
2015-11-23T10:42:22.841Z,2.2
2015-11-23T10:43:24.406Z,2.2
2015-11-23T10:44:25.955Z,2.2
2015-11-23T10:45:27.521Z,2.2
2015-11-23T10:46:29.133Z,2.2
2015-11-23T10:47:30.886Z,2.1
2015-11-23T10:48:32.186Z,2.1
2015-11-23T10:49:33.485Z,2.1
2015-11-23T10:50:34.800Z,2.2
2015-11-23T10:51:36.115Z,2.1
2015-11-23T10:52:37.399Z,2.2
2015-11-23T10:53:38.699Z,2.2
2015-11-23T10:54:39.999Z,2.2
2015-11-23T10:55:41.297Z,2.2
2015-11-23T10:56:42.660Z,2.2
2015-11-23T10:57:44.413Z,2.2
2015-11-23T10:58:45.713Z,2.2
2015-11-23T10:59:47.027Z,2.2
2015-11-23T11:00:48.328Z,2.2
2015-11-23T11:01:49.643Z,2.2
2015-11-23T11:02:50.958Z,2.2
2015-11-23T11:03:52.242Z,2.2
2015-11-23T11:04:53.541Z,2.2
2015-11-23T11:05:54.841Z,2.1
2015-11-23T11:06:56.203Z,2.2
2015-11-23T11:07:58.002Z,2.2
2015-11-23T11:08:59.521Z,2.1
2015-11-23T11:10:01.070Z,2.2
2015-11-23T11:11:02.636Z,2.2
2015-11-23T11:12:04.451Z,2.2
2015-11-23T11:13:06.282Z,2.2
2015-11-23T11:14:08.082Z,2.2
2015-11-23T11:15:09.897Z,2.2
2015-11-23T11:16:11.712Z,2.2
2015-11-23T11:17:13.574Z,2.2
2015-11-23T11:18:15.357Z,2.2
2015-11-23T11:19:17.142Z,2.2
2015-11-23T11:20:18.958Z,2.2
2015-11-23T11:21:22.186Z,2.1
2015-11-23T11:22:22.595Z,2.2
2015-11-23T11:23:24.411Z,2.2
2015-11-23T11:24:26.225Z,2.1
2015-11-23T11:25:28.040Z,2.1
2015-11-23T11:26:29.855Z,2.2
2015-11-23T11:27:31.717Z,2.2
2015-11-23T11:28:33.486Z,2.2
2015-11-23T11:29:35.286Z,2.3
2015-11-23T11:30:37.100Z,2.2
2015-11-23T11:31:39.166Z,2.3
2015-11-23T11:32:41.231Z,2.3
2015-11-23T11:33:43.328Z,2.3
2015-11-23T11:34:45.144Z,2.4
2015-11-23T11:35:46.958Z,2.4
2015-11-23T11:36:48.774Z,2.4
2015-11-23T11:37:50.652Z,2.4
2015-11-23T11:38:52.404Z,2.4
2015-11-23T11:39:54.219Z,2.4
2015-11-23T11:40:56.035Z,2.4
2015-11-23T11:41:57.849Z,2.3
2015-11-23T11:42:59.665Z,2.3
2015-11-23T11:44:01.495Z,2.3
2015-11-23T11:45:03.295Z,2.3
2015-11-23T11:46:05.110Z,2.3
2015-11-23T11:47:06.928Z,2.3
2015-11-23T11:48:08.790Z,2.3
2015-11-23T11:49:10.558Z,2.3
2015-11-23T11:50:12.374Z,2.3
2015-11-23T11:51:14.190Z,2.3
2015-11-23T11:52:16.005Z,2.3
2015-11-23T11:53:17.819Z,2.3
2015-11-23T11:54:19.634Z,2.3
2015-11-23T11:55:21.451Z,2.3
2015-11-23T11:56:23.265Z,2.3
2015-11-23T11:57:25.081Z,2.3
2015-11-23T11:58:26.959Z,2.4
2015-11-23T11:59:28.712Z,2.3
2015-11-23T12:00:30.526Z,2.4
2015-11-23T12:01:32.341Z,2.4
2015-11-23T12:02:34.156Z,2.4
2015-11-23T12:03:35.972Z,2.4
2015-11-23T12:04:37.787Z,2.5
2015-11-23T12:05:39.603Z,2.4
2015-11-23T12:06:41.417Z,2.4
2015-11-23T12:07:43.233Z,2.4
2015-11-23T12:08:45.111Z,2.4
2015-11-23T12:09:46.864Z,2.4
2015-11-23T12:10:48.678Z,2.4
2015-11-23T12:11:50.494Z,2.4
2015-11-23T12:12:52.309Z,2.4
2015-11-23T12:13:54.124Z,2.4
2015-11-23T12:14:55.939Z,2.3
2015-11-23T12:15:57.770Z,2.4
2015-11-23T12:16:59.555Z,2.3
2015-11-23T12:18:01.635Z,2.3
2015-11-23T12:19:03.763Z,2.3
2015-11-23T12:20:05.515Z,2.3
2015-11-23T12:21:07.846Z,2.3
2015-11-23T12:22:09.911Z,2.3
2015-11-23T12:23:12.242Z,2.4
2015-11-23T12:24:14.573Z,2.4
2015-11-23T12:25:16.654Z,2.4
2015-11-23T12:26:18.985Z,2.4
2015-11-23T12:27:21.316Z,2.4
2015-11-23T12:28:23.631Z,2.4
2015-11-23T12:29:26.025Z,2.4
2015-11-23T12:30:27.777Z,2.4
2015-11-23T12:31:30.107Z,2.4
2015-11-23T12:32:32.424Z,2.5
2015-11-23T12:33:34.754Z,2.5
2015-11-23T12:34:37.085Z,2.5
2015-11-23T12:35:39.416Z,2.5
2015-11-23T12:36:41.732Z,2.5
2015-11-23T12:37:44.062Z,2.5
2015-11-23T12:38:46.393Z,2.5
2015-11-23T12:39:48.786Z,2.5
2015-11-23T12:40:50.538Z,2.5
2015-11-23T12:41:52.604Z,2.5
2015-11-23T12:42:54.935Z,2.5
2015-11-23T12:46:01.415Z,2.5
2015-11-23T12:47:03.479Z,2.5
2015-11-23T12:49:07.642Z,2.6
2015-11-23T12:50:09.769Z,2.6
2015-11-23T12:51:11.522Z,2.6
2015-11-23T12:52:13.587Z,2.5
2015-11-23T12:53:15.668Z,2.6
2015-11-23T12:54:17.733Z,2.6
2015-11-23T12:55:19.798Z,2.6
2015-11-23T12:56:21.879Z,2.7
2015-11-23T12:57:23.945Z,2.7
2015-11-23T12:58:26.042Z,2.6
2015-11-23T12:59:27.840Z,2.7
2015-11-23T13:00:29.967Z,2.7
2015-11-23T13:01:31.751Z,2.7
2015-11-23T13:02:33.801Z,2.7
2015-11-23T13:03:35.616Z,2.7
2015-11-23T13:04:37.447Z,2.8
2015-11-23T13:05:39.247Z,2.7
2015-11-23T13:06:41.077Z,2.8
2015-11-23T13:07:42.877Z,2.8
2015-11-23T13:08:44.692Z,2.8
2015-11-23T13:09:46.523Z,2.8
2015-11-23T13:10:48.385Z,2.8
2015-11-23T13:11:50.154Z,2.8
2015-11-23T13:12:51.953Z,2.8
2015-11-23T13:13:53.784Z,2.8
2015-11-23T13:14:55.584Z,2.8
2015-11-23T13:15:57.399Z,2.9
2015-11-23T13:16:59.214Z,2.8
2015-11-23T13:18:01.029Z,2.8
2015-11-23T13:19:02.829Z,2.9
2015-11-23T13:20:04.644Z,2.9
2015-11-23T13:21:06.522Z,2.9
2015-11-23T13:22:08.274Z,2.9
2015-11-23T13:23:10.090Z,2.9
2015-11-23T13:24:11.905Z,2.9
2015-11-23T13:25:13.720Z,2.9
2015-11-23T13:26:15.535Z,3
2015-11-23T13:27:17.351Z,3
2015-11-23T13:28:19.165Z,3
2015-11-23T13:29:20.981Z,3
2015-11-23T13:30:22.781Z,3
2015-11-23T13:31:24.659Z,3
2015-11-23T13:32:26.411Z,3
2015-11-23T13:33:28.226Z,3.1
2015-11-23T13:34:30.042Z,3.1
2015-11-23T13:35:31.857Z,3.1
2015-11-23T13:36:33.673Z,3.1
2015-11-23T13:37:35.487Z,3.1
2015-11-23T13:38:37.303Z,3.1
2015-11-23T13:39:39.118Z,3.1
2015-11-23T13:40:40.933Z,3.1
2015-11-23T13:41:42.795Z,3.1
2015-11-23T13:42:44.548Z,3.2
2015-11-23T13:43:46.364Z,3.2
2015-11-23T13:44:48.179Z,3.2
2015-11-23T13:46:51.809Z,3.2
2015-11-23T13:47:53.624Z,3.2
2015-11-23T13:48:55.192Z,3.2
2015-11-23T13:49:56.991Z,3.2
2015-11-23T13:50:58.557Z,3.2
2015-11-23T13:52:00.419Z,3.2
2015-11-23T13:53:02.188Z,3.2
2015-11-23T13:54:03.737Z,3.3
2015-11-23T13:55:05.302Z,3.3
2015-11-23T13:56:06.852Z,3.2
2015-11-23T13:57:08.417Z,3.3
2015-11-23T13:58:09.966Z,3.3
2015-11-23T13:59:11.533Z,3.3
2015-11-23T14:00:13.082Z,3.3
2015-11-23T14:01:14.646Z,3.3
2015-11-23T14:02:16.259Z,3.3
2015-11-23T14:03:18.011Z,3.3
2015-11-23T14:04:19.577Z,3.3
2015-11-23T14:05:21.126Z,3.3
2015-11-23T14:06:22.691Z,3.3
2015-11-23T14:07:24.241Z,3.3
2015-11-23T14:08:25.791Z,3.3
2015-11-23T14:09:27.356Z,3.3
2015-11-23T14:10:28.905Z,3.3
2015-11-23T14:11:30.471Z,3.3
2015-11-23T14:12:32.082Z,3.3
2015-11-23T14:13:33.835Z,3.3
2015-11-23T14:14:35.401Z,3.3
2015-11-23T14:15:36.951Z,3.3
2015-11-23T14:16:38.501Z,3.3
2015-11-23T14:17:40.065Z,3.3
2015-11-23T14:18:41.615Z,3.3
2015-11-23T14:19:43.180Z,3.3
2015-11-23T14:20:44.729Z,3.3
2015-11-23T14:21:46.295Z,3.3
2015-11-23T14:22:47.907Z,3.2
2015-11-23T14:23:49.660Z,3.2
2015-11-23T14:24:51.225Z,3.2
2015-11-23T14:25:52.775Z,3.2
2015-11-23T14:26:54.340Z,3.2
2015-11-23T14:27:55.889Z,3.2
2015-11-23T14:28:57.455Z,3.2
2015-11-23T14:29:59.004Z,3.2
2015-11-23T14:31:00.570Z,3.2
2015-11-23T14:32:02.120Z,3.1
2015-11-23T14:33:03.731Z,3.1
2015-11-23T14:34:05.500Z,3.1
2015-11-23T14:35:07.050Z,3.1
2015-11-23T14:36:08.598Z,3.1
2015-11-23T14:37:10.165Z,3.1
2015-11-23T14:38:11.977Z,3.1
2015-11-23T14:39:13.520Z,3.1
2015-11-23T14:40:15.078Z,3.1
2015-11-23T14:41:16.620Z,3.1
2015-11-23T14:42:18.178Z,3
2015-11-23T14:43:19.784Z,3
2015-11-23T14:44:21.534Z,3
2015-11-23T14:45:23.096Z,3
2015-11-23T14:46:24.643Z,3
2015-11-23T14:47:26.191Z,3
2015-11-23T14:48:27.753Z,2.9
2015-11-23T14:49:29.567Z,2.9
2015-11-23T14:50:31.381Z,2.9
2015-11-23T14:51:33.195Z,2.9
2015-11-23T14:52:34.994Z,2.9